Sea Lion — WUV3542 — position and weather

sailwx.info

Track history (hours):
 
Tides and Currents Weather Stations Pressure Air Temp Water Temp Dewpoint Dewpoint Depression Visibility Wind Speed Wind Dir Waves Ship Positions

Sea Lion

Owner: SEA WOLF MARINE INC, Bayonne, NJ. More information available from US FCC via Universal Licensing System and Coast Guard Vessel Documentation Center.

Last reported at 2017-Nov-24 05:15 UTC. Time now 2017-Nov-24 05:48 UTC.
Position N 40°49' W 073°52'.

Length 20 m; draft 3 m.

Type: Towing. MMSI: 367000930.

Date/timePositionNaut miles runAvg speedWind from/ knotsBaromVisibWave heightAir tempDewpointWater temp
2017-Nov-24 05:15N 40°49' W 073°52'1 3.3
2017-Nov-24 04:56N 40°48' W 073°53'4 8.5
2017-Nov-24 04:30N 40°46' W 073°57'4 8.1
2017-Nov-24 04:01N 40°42' W 073°60'3 6.9
2017-Nov-24 03:31N 40°40' W 074°03'1 2.3
2017-Nov-24 03:00N 40°41' W 074°04'0 0.3
2017-Nov-24 02:28N 40°41' W 074°05'0 0.0
2017-Nov-24 01:58N 40°41' W 074°05'0 0.0
2017-Nov-24 01:28N 40°41' W 074°05'0 0.0
2017-Nov-24 00:58N 40°41' W 074°05'0 0.0
2017-Nov-24 00:28N 40°41' W 074°05'0 0.0
2017-Nov-23 23:58N 40°41' W 074°05'0 0.0
2017-Nov-23 23:28N 40°41' W 074°05'0 0.0
2017-Nov-23 22:58N 40°41' W 074°05'0 0.0
2017-Nov-23 22:28N 40°41' W 074°05'0 0.0
2017-Nov-23 21:58N 40°41' W 074°05'0 0.0
2017-Nov-23 21:28N 40°41' W 074°05'0 0.0
2017-Nov-23 20:58N 40°41' W 074°05'0 0.0
2017-Nov-23 20:28N 40°41' W 074°05'0 0.0
2017-Nov-23 19:58N 40°41' W 074°05'0 0.0
2017-Nov-23 19:28N 40°41' W 074°05'0 0.0
2017-Nov-23 18:58N 40°41' W 074°05'0 0.0
2017-Nov-23 18:25N 40°41' W 074°05'0 0.0
2017-Nov-23 17:58N 40°41' W 074°05'0 0.0
2017-Nov-23 17:28N 40°41' W 074°05'0 0.0
2017-Nov-23 16:58N 40°41' W 074°05'0 0.0
2017-Nov-23 16:28N 40°41' W 074°05'0 0.0
2017-Nov-23 15:58N 40°41' W 074°05'0 0.0
2017-Nov-23 15:28N 40°41' W 074°05'0 0.0
2017-Nov-23 14:58N 40°41' W 074°05'0 0.0
2017-Nov-23 14:25N 40°41' W 074°05'0 0.6
2017-Nov-23 14:00N 40°41' W 074°05'0 0.5
2017-Nov-23 13:30N 40°41' W 074°05'0 0.7
2017-Nov-23 12:58N 40°41' W 074°04'0 0.8
2017-Nov-23 12:30N 40°41' W 074°05'0 0.1
2017-Nov-23 12:00N 40°41' W 074°05'0 0.1
2017-Nov-23 11:29N 40°41' W 074°05'0 0.0
2017-Nov-23 10:59N 40°41' W 074°05'0 0.0
2017-Nov-23 10:29N 40°41' W 074°05'0 0.0
2017-Nov-23 09:59N 40°41' W 074°05'0 0.0
2017-Nov-23 09:29N 40°41' W 074°05'0 0.0
2017-Nov-23 08:59N 40°41' W 074°05'0 0.0
2017-Nov-23 08:29N 40°41' W 074°05'0 0.0
2017-Nov-23 07:56N 40°41' W 074°05'0 0.0
2017-Nov-23 07:29N 40°41' W 074°05'0 0.0
2017-Nov-23 06:59N 40°41' W 074°05'0 0.0
2017-Nov-23 06:29N 40°41' W 074°05'0 0.0
2017-Nov-23 05:59N 40°41' W 074°05'0 0.0
2017-Nov-23 05:29N 40°41' W 074°05'0 0.0
2017-Nov-23 04:59N 40°41' W 074°05'0 0.0
2017-Nov-23 04:29N 40°41' W 074°05'0 0.0
2017-Nov-23 03:59N 40°41' W 074°05'2 3.7
2017-Nov-23 03:30N 40°40' W 074°03'3 5.4
2017-Nov-23 03:00N 40°42' W 073°60'2 3.9
2017-Nov-23 02:30N 40°44' W 073°58'1 2.4
2017-Nov-23 02:00N 40°44' W 073°57'4 7.4
2017-Nov-23 01:30N 40°42' W 074°00'3 5.8
2017-Nov-23 01:00N 40°41' W 074°04'1 1.3
2017-Nov-23 00:26N 40°41' W 074°05'0 0.0
2017-Nov-22 23:59N 40°41' W 074°05'0 0.0
2017-Nov-22 23:29N 40°41' W 074°05'0 0.0
2017-Nov-22 22:59N 40°41' W 074°05'0 0.0
2017-Nov-22 22:26N 40°41' W 074°05'0 0.0
2017-Nov-22 21:59N 40°41' W 074°05'0 0.0
2017-Nov-22 21:26N 40°41' W 074°05'0 0.0
2017-Nov-22 20:56N 40°41' W 074°05'0 0.0
2017-Nov-22 20:30N 40°41' W 074°05'0 0.4
2017-Nov-22 20:00N 40°41' W 074°04'0 0.4
2017-Nov-22 19:30N 40°41' W 074°05'  
2017-Nov-20 00:26N 40°41' W 074°05'0 0.0
2017-Nov-19 23:59N 40°41' W 074°05'0 0.0
2017-Nov-19 23:29N 40°41' W 074°05'0 0.0
2017-Nov-19 22:59N 40°41' W 074°05'0 0.0
2017-Nov-19 22:29N 40°41' W 074°05'0 0.0
2017-Nov-19 21:59N 40°41' W 074°05'0 0.0
2017-Nov-19 21:29N 40°41' W 074°05'0 0.0
2017-Nov-19 20:59N 40°41' W 074°05'0 0.0
2017-Nov-19 20:29N 40°41' W 074°05'0 0.0
2017-Nov-19 19:59N 40°41' W 074°05'0 0.0
2017-Nov-19 19:29N 40°41' W 074°05'0 0.0
2017-Nov-19 18:59N 40°41' W 074°05'0 0.0
2017-Nov-19 18:29N 40°41' W 074°05'0 0.0
2017-Nov-19 17:56N 40°41' W 074°05'0 0.0
2017-Nov-19 17:29N 40°41' W 074°05'0 0.0
2017-Nov-19 16:59N 40°41' W 074°05'0 0.0
2017-Nov-19 16:29N 40°41' W 074°05'0 0.0
2017-Nov-19 15:59N 40°41' W 074°05'0 0.0
2017-Nov-19 15:29N 40°41' W 074°05'0 0.0
2017-Nov-19 14:59N 40°41' W 074°05'0 0.0
2017-Nov-19 14:29N 40°41' W 074°05'0 0.0
2017-Nov-19 13:59N 40°41' W 074°05'0 0.0
2017-Nov-19 13:26N 40°41' W 074°05'0 0.0
2017-Nov-19 12:56N 40°41' W 074°05'0 0.0
2017-Nov-19 12:29N 40°41' W 074°05'0 0.0
2017-Nov-19 11:59N 40°41' W 074°05'0 0.0
2017-Nov-19 11:29N 40°41' W 074°05'0 0.0
2017-Nov-19 10:59N 40°41' W 074°05'0 0.0
2017-Nov-19 10:29N 40°41' W 074°05'0 0.0
2017-Nov-19 09:56N 40°41' W 074°05'0 0.0
2017-Nov-19 09:23N 40°41' W 074°05'0 0.0
2017-Nov-19 08:44N 40°41' W 074°05'0 0.0
2017-Nov-19 08:29N 40°41' W 074°05'0 0.0
2017-Nov-19 07:59N 40°41' W 074°05'0 0.0
2017-Nov-19 07:29N 40°41' W 074°05'0 0.0
2017-Nov-19 06:59N 40°41' W 074°05'0 0.0
2017-Nov-19 06:29N 40°41' W 074°05'0 0.0
2017-Nov-19 05:56N 40°41' W 074°05'0 0.0
2017-Nov-19 05:29N 40°41' W 074°05'0 0.0
2017-Nov-19 04:59N 40°41' W 074°05'0 0.0
2017-Nov-19 04:29N 40°41' W 074°05'0 0.0
2017-Nov-19 03:59N 40°41' W 074°05'0 0.0
2017-Nov-19 03:29N 40°41' W 074°05'0 0.0
2017-Nov-19 02:59N 40°41' W 074°05'0 0.0
2017-Nov-19 02:29N 40°41' W 074°05'0 0.0
2017-Nov-19 01:59N 40°41' W 074°05'0 0.0
2017-Nov-19 01:29N 40°41' W 074°05'0 0.0
2017-Nov-19 00:59N 40°41' W 074°05'0 0.0
2017-Nov-19 00:29N 40°41' W 074°05'0 0.0
2017-Nov-18 23:59N 40°41' W 074°05'0 0.0
2017-Nov-18 23:29N 40°41' W 074°05'0 0.0
2017-Nov-18 22:59N 40°41' W 074°05'0 0.0
2017-Nov-18 22:29N 40°41' W 074°05'0 0.0
2017-Nov-18 21:59N 40°41' W 074°05'0 0.0
2017-Nov-18 21:29N 40°41' W 074°05'0 0.0
2017-Nov-18 20:59N 40°41' W 074°05'0 0.0
2017-Nov-18 20:29N 40°41' W 074°05'0 0.0
2017-Nov-18 19:59N 40°41' W 074°05'0 0.7
2017-Nov-18 19:30N 40°41' W 074°04'3 5.8
2017-Nov-18 18:59N 40°40' W 074°01'3 6.9
2017-Nov-18 18:30N 40°41' W 074°05'0 0.0
2017-Nov-18 18:00N 40°41' W 074°05'0 0.0
2017-Nov-18 17:30N 40°41' W 074°05'0 0.0
2017-Nov-18 17:00N 40°41' W 074°05'0 0.0
2017-Nov-18 16:30N 40°41' W 074°05'0 0.0
2017-Nov-18 16:00N 40°41' W 074°05'0 0.0
2017-Nov-18 15:30N 40°41' W 074°05'0 0.0
2017-Nov-18 15:00N 40°41' W 074°05'0 0.3
2017-Nov-18 14:28N 40°41' W 074°04'2 4.2
2017-Nov-18 14:01N 40°40' W 074°02'1 2.6
2017-Nov-18 13:28N 40°40' W 074°01'0 0.0
2017-Nov-18 13:00N 40°40' W 074°01'3 6.3
2017-Nov-18 12:28N 40°41' W 074°05'0 0.0
2017-Nov-18 11:58N 40°41' W 074°05'0 0.0
2017-Nov-18 11:28N 40°41' W 074°05'0 0.0
2017-Nov-18 10:58N 40°41' W 074°05'0 0.0
2017-Nov-18 10:28N 40°41' W 074°05'0 0.0
2017-Nov-18 09:58N 40°41' W 074°05'0 0.0
2017-Nov-18 09:25N 40°41' W 074°05'0 0.0
2017-Nov-18 08:58N 40°41' W 074°05'0 0.0
2017-Nov-18 08:28N 40°41' W 074°05'0 0.0
2017-Nov-18 07:58N 40°41' W 074°05'0 0.0
2017-Nov-18 07:28N 40°41' W 074°05'0 0.0
2017-Nov-18 06:58N 40°41' W 074°05'0 0.0
2017-Nov-18 06:28N 40°41' W 074°05'0 0.0
2017-Nov-18 05:58N 40°41' W 074°05'0 0.0
2017-Nov-18 05:28N 40°41' W 074°05'0 0.0
2017-Nov-18 04:46N 40°41' W 074°05'0 0.0
2017-Nov-18 04:28N 40°41' W 074°05'0 0.0
2017-Nov-18 03:58N 40°41' W 074°05'0 0.0
2017-Nov-18 03:28N 40°41' W 074°05'0 0.0
2017-Nov-18 02:58N 40°41' W 074°05'0 0.0
2017-Nov-18 02:28N 40°41' W 074°05'0 0.0
2017-Nov-18 01:58N 40°41' W 074°05'0 0.0
2017-Nov-18 01:28N 40°41' W 074°05'0 0.0
2017-Nov-18 00:58N 40°41' W 074°05'0 0.0
2017-Nov-18 00:28N 40°41' W 074°05'0 0.0
2017-Nov-17 23:58N 40°41' W 074°05'0 0.0
2017-Nov-17 23:28N 40°41' W 074°05'0 0.0
2017-Nov-17 22:55N 40°41' W 074°05'0 0.0
2017-Nov-17 22:28N 40°41' W 074°05'0 0.0
2017-Nov-17 21:58N 40°41' W 074°05'0 0.0
2017-Nov-17 21:28N 40°41' W 074°05'0 0.0
2017-Nov-17 20:58N 40°41' W 074°05'0 0.0
2017-Nov-17 20:28N 40°41' W 074°05'2 3.7
2017-Nov-17 20:01N 40°41' W 074°03'4 7.9
2017-Nov-17 19:31N 40°43' W 073°58'2 3.4
2017-Nov-17 19:00N 40°44' W 073°57'2 3.7
2017-Nov-17 18:30N 40°43' W 073°58'2 4.8
2017-Nov-17 18:00N 40°41' W 074°01'2 4.7
2017-Nov-17 17:30N 40°40' W 074°04'1 2.2
2017-Nov-17 17:01N 40°41' W 074°05'0 0.0
2017-Nov-17 16:27N 40°41' W 074°05'0 0.0
2017-Nov-17 16:00N 40°41' W 074°05'0 0.1
2017-Nov-17 15:29N 40°41' W 074°05'1 2.5
2017-Nov-17 15:00N 40°40' W 074°03'1 2.2
2017-Nov-17 14:30N 40°42' W 074°03'0 0.0
2017-Nov-17 14:00N 40°42' W 074°03'0 0.0
2017-Nov-17 13:30N 40°42' W 074°03'0 0.0
2017-Nov-17 13:00N 40°42' W 074°03'1 2.4
2017-Nov-17 12:30N 40°41' W 074°04'1 1.7
2017-Nov-17 12:01N 40°41' W 074°05'0 0.0
2017-Nov-17 11:29N 40°41' W 074°05'0 0.0
2017-Nov-17 10:58N 40°41' W 074°05'0 0.0
2017-Nov-17 10:28N 40°41' W 074°05'0 0.0
2017-Nov-17 09:59N 40°41' W 074°05'0 0.0
2017-Nov-17 09:25N 40°41' W 074°05'0 0.0
2017-Nov-17 08:59N 40°41' W 074°05'0 0.0
2017-Nov-17 08:29N 40°41' W 074°05'0 0.0
2017-Nov-17 07:59N 40°41' W 074°05'0 0.0
2017-Nov-17 07:28N 40°41' W 074°05'0 0.0
2017-Nov-17 06:59N 40°41' W 074°05'0 0.0
2017-Nov-17 06:29N 40°41' W 074°05'0 0.0
2017-Nov-17 05:58N 40°41' W 074°05'0 0.0
2017-Nov-17 05:28N 40°41' W 074°05'0 0.0
2017-Nov-17 04:59N 40°41' W 074°05'0 0.0
2017-Nov-17 04:28N 40°41' W 074°05'0 0.0
2017-Nov-17 03:58N 40°41' W 074°05'0 0.0
2017-Nov-17 03:29N 40°41' W 074°05'0 0.0
2017-Nov-17 02:58N 40°41' W 074°05'0 0.0
2017-Nov-17 02:28N 40°41' W 074°05'0 0.0
2017-Nov-17 01:58N 40°41' W 074°05'0 0.0
2017-Nov-17 01:28N 40°41' W 074°05'0 0.0
2017-Nov-17 00:58N 40°41' W 074°05'0 0.0
2017-Nov-17 00:28N 40°41' W 074°05'0 0.0
2017-Nov-16 23:58N 40°41' W 074°05'0 0.0
2017-Nov-16 23:28N 40°41' W 074°05'0 0.0
2017-Nov-16 22:55N 40°41' W 074°05'0 0.0
2017-Nov-16 22:28N 40°41' W 074°05'0 0.0
2017-Nov-16 21:58N 40°41' W 074°05'0 0.0
2017-Nov-16 21:28N 40°41' W 074°05'0 0.0
2017-Nov-16 20:55N 40°41' W 074°05'0 0.0
2017-Nov-16 20:25N 40°41' W 074°05'0 0.0
2017-Nov-16 19:58N 40°41' W 074°05'0 0.1
2017-Nov-16 19:30N 40°41' W 074°05'1 2.2
2017-Nov-16 19:00N 40°40' W 074°04'1 2.2
2017-Nov-16 18:28N 40°42' W 074°03'0 0.0
2017-Nov-16 17:58N 40°42' W 074°03'0 0.0
2017-Nov-16 17:28N 40°42' W 074°03'0 0.0
2017-Nov-16 16:58N 40°42' W 074°03'0 0.0
2017-Nov-16 16:28N 40°42' W 074°03'0 0.0
2017-Nov-16 15:58N 40°42' W 074°03'0 0.0
2017-Nov-16 15:28N 40°42' W 074°03'0 0.0
2017-Nov-16 14:58N 40°42' W 074°03'0 0.0
2017-Nov-16 14:28N 40°42' W 074°03'0 0.0
2017-Nov-16 13:58N 40°42' W 074°03'1 2.5
2017-Nov-16 13:30N 40°40' W 074°03'1 2.2
2017-Nov-16 12:58N 40°41' W 074°05'0 0.0
2017-Nov-16 12:29N 40°41' W 074°05'0 0.0
2017-Nov-16 11:58N 40°41' W 074°05'0 0.0
2017-Nov-16 11:28N 40°41' W 074°05'0 0.0
2017-Nov-16 10:58N 40°41' W 074°05'0 0.0
2017-Nov-16 10:29N 40°41' W 074°05'0 0.0
2017-Nov-16 09:59N 40°41' W 074°05'0 0.0
2017-Nov-16 09:26N 40°41' W 074°05'0 0.0
2017-Nov-16 08:56N 40°41' W 074°05'0 0.0
2017-Nov-16 08:28N 40°41' W 074°05'0 0.0
2017-Nov-16 07:58N 40°41' W 074°05'0 0.0
2017-Nov-16 07:29N 40°41' W 074°05'0 0.0
2017-Nov-16 06:58N 40°41' W 074°05'0 0.0
2017-Nov-16 06:28N 40°41' W 074°05'0 0.0
2017-Nov-16 05:55N 40°41' W 074°05'0 0.0
2017-Nov-16 05:29N 40°41' W 074°05'0 0.0
2017-Nov-16 04:58N 40°41' W 074°05'0 0.0
2017-Nov-16 04:28N 40°41' W 074°05'0 0.0
2017-Nov-16 03:58N 40°41' W 074°05'0 0.0
2017-Nov-16 03:28N 40°41' W 074°05'0 0.0
2017-Nov-16 02:58N 40°41' W 074°05'0 0.5
2017-Nov-16 02:31N 40°41' W 074°04'3 5.9
2017-Nov-16 02:01N 40°42' W 074°01'4 7.7
2017-Nov-16 01:30N 40°45' W 073°58'4 7.5
2017-Nov-16 00:58N 40°48' W 073°54'2 1.4
2017-Nov-15 23:46N 40°49' W 073°52'1 3.9
2017-Nov-15 23:30N 40°48' W 073°53'4 9.0
2017-Nov-15 23:00N 40°45' W 073°58'4 8.4
2017-Nov-15 22:31N 40°42' W 074°00'3 6.0
2017-Nov-15 22:00N 40°41' W 074°04'0 0.6
2017-Nov-15 21:29N 40°41' W 074°05'0 0.0
2017-Nov-15 20:59N 40°41' W 074°05'0 0.0
2017-Nov-15 20:29N 40°41' W 074°05'0 0.0
2017-Nov-15 19:59N 40°41' W 074°05'0 0.0
2017-Nov-15 19:29N 40°41' W 074°05'0 0.0
2017-Nov-15 18:56N 40°41' W 074°05'0 0.0
2017-Nov-15 18:29N 40°41' W 074°05'0 0.0
2017-Nov-15 17:59N 40°41' W 074°05'0 0.0
2017-Nov-15 17:26N 40°41' W 074°05'0 0.0
2017-Nov-15 16:59N 40°41' W 074°05'0 0.0
2017-Nov-15 16:29N 40°41' W 074°05'0 0.0
2017-Nov-15 15:59N 40°41' W 074°05'0 0.0
2017-Nov-15 15:29N 40°41' W 074°05'0 0.0
2017-Nov-15 14:59N 40°41' W 074°05'0 0.0
2017-Nov-15 14:29N 40°41' W 074°05'0 0.0
2017-Nov-15 14:00N 40°41' W 074°05'0 0.1
2017-Nov-15 13:27N 40°41' W 074°05'0 0.0
2017-Nov-15 12:42N 40°41' W 074°05'0 0.0
2017-Nov-15 12:27N 40°41' W 074°05'0 0.0
2017-Nov-15 12:00N 40°41' W 074°05'0 0.0
2017-Nov-15 11:30N 40°41' W 074°05'0 0.0
2017-Nov-15 10:57N 40°41' W 074°05'0 0.0
2017-Nov-15 10:30N 40°41' W 074°05'0 0.0
2017-Nov-15 10:00N 40°41' W 074°05'0 0.0
2017-Nov-15 09:30N 40°41' W 074°05'0 0.0
2017-Nov-15 09:00N 40°41' W 074°05'0 0.0
2017-Nov-15 08:30N 40°41' W 074°05'0 0.0
2017-Nov-15 08:00N 40°41' W 074°05'0 0.0
2017-Nov-15 07:30N 40°41' W 074°05'0 0.0
2017-Nov-15 07:00N 40°41' W 074°05'0 0.0
2017-Nov-15 06:30N 40°41' W 074°05'0 0.0
2017-Nov-15 06:00N 40°41' W 074°05'0 0.0
2017-Nov-15 05:30N 40°41' W 074°05'0 0.0
2017-Nov-15 05:00N 40°41' W 074°05'0 0.0
2017-Nov-15 04:27N 40°41' W 074°05'0 0.0
2017-Nov-15 04:00N 40°41' W 074°05'0 0.0
2017-Nov-15 03:30N 40°41' W 074°05'0 0.4
2017-Nov-15 03:00N 40°41' W 074°04'3 5.4
2017-Nov-15 02:30N 40°40' W 074°01'0 0.3
2017-Nov-15 02:00N 40°40' W 074°01'4 7.9
2017-Nov-15 01:30N 40°43' W 073°58'5 8.7
2017-Nov-15 00:59N 40°47' W 073°55'3 5.5
2017-Nov-15 00:30N 40°48' W 073°52'0 0.2
2017-Nov-14 22:42N 40°49' W 073°52'1 4.5
2017-Nov-14 22:29N 40°48' W 073°52'4 8.3
2017-Nov-14 22:00N 40°46' W 073°57'4 8.5
2017-Nov-14 21:30N 40°42' W 073°60'3 6.9
2017-Nov-14 21:01N 40°40' W 074°04'1 1.8
2017-Nov-14 20:25N 40°41' W 074°05'0 0.0
2017-Nov-14 19:49N 40°41' W 074°05'0 0.0
2017-Nov-14 19:19N 40°41' W 074°05'0 0.0
2017-Nov-14 18:58N 40°41' W 074°05'0 0.0
2017-Nov-14 18:25N 40°41' W 074°05'0 0.0
2017-Nov-14 17:58N 40°41' W 074°05'0 0.0
2017-Nov-14 17:25N 40°41' W 074°05'0 0.0
2017-Nov-14 16:58N 40°41' W 074°05'0 0.0
2017-Nov-14 16:19N 40°41' W 074°05'0 0.2
2017-Nov-14 15:59N 40°41' W 074°05'1 1.6
2017-Nov-14 15:30N 40°41' W 074°04'1 2.3
2017-Nov-14 14:59N 40°42' W 074°03'0 0.0
2017-Nov-14 14:29N 40°42' W 074°03'0 0.0
2017-Nov-14 13:59N 40°42' W 074°03'0 0.0
2017-Nov-14 13:29N 40°42' W 074°03'0 0.0
2017-Nov-14 12:59N 40°42' W 074°03'1 2.6
2017-Nov-14 12:30N 40°41' W 074°04'1 1.6
2017-Nov-14 11:58N 40°41' W 074°05'0 0.0
2017-Nov-14 11:28N 40°41' W 074°05'0 0.0
2017-Nov-14 10:58N 40°41' W 074°05'0 0.0
2017-Nov-14 10:28N 40°41' W 074°05'0 0.0
2017-Nov-14 09:58N 40°41' W 074°05'0 0.0
2017-Nov-14 09:28N 40°41' W 074°05'0 0.0
2017-Nov-14 08:58N 40°41' W 074°05'0 0.0
2017-Nov-14 08:28N 40°41' W 074°05'0 0.0
2017-Nov-14 07:58N 40°41' W 074°05'0 0.0
2017-Nov-14 07:28N 40°41' W 074°05'0 0.0
2017-Nov-14 06:52N 40°41' W 074°05'0 0.0
2017-Nov-14 06:28N 40°41' W 074°05'0 0.0
2017-Nov-14 05:58N 40°41' W 074°05'0 0.0
2017-Nov-14 05:28N 40°41' W 074°05'  
Track history (hours):
 
Tides and Currents Weather Stations Pressure Air Temp Water Temp Dewpoint Dewpoint Depression Visibility Wind Speed Wind Dir Waves Ship Positions

Sea Lion

Owner: SEA WOLF MARINE INC, Bayonne, NJ. More information available from US FCC via Universal Licensing System and Coast Guard Vessel Documentation Center.

Last reported at 2017-Nov-24 05:15 UTC. Time now 2017-Nov-24 05:48 UTC.
Position N 40°49' W 073°52'.

Length 20 m; draft 3 m.

Type: Towing. MMSI: 367000930.

Date/timePositionNaut miles runAvg speedWind from/ knotsBaromVisibWave heightAir tempDewpointWater temp
2017-Nov-24 05:15N 40°49' W 073°52'1 3.3
2017-Nov-24 04:56N 40°48' W 073°53'4 8.5
2017-Nov-24 04:30N 40°46' W 073°57'4 8.1
2017-Nov-24 04:01N 40°42' W 073°60'3 6.9
2017-Nov-24 03:31N 40°40' W 074°03'1 2.3
2017-Nov-24 03:00N 40°41' W 074°04'0 0.3
2017-Nov-24 02:28N 40°41' W 074°05'0 0.0
2017-Nov-24 01:58N 40°41' W 074°05'0 0.0
2017-Nov-24 01:28N 40°41' W 074°05'0 0.0
2017-Nov-24 00:58N 40°41' W 074°05'0 0.0
2017-Nov-24 00:28N 40°41' W 074°05'0 0.0
2017-Nov-23 23:58N 40°41' W 074°05'0 0.0
2017-Nov-23 23:28N 40°41' W 074°05'0 0.0
2017-Nov-23 22:58N 40°41' W 074°05'0 0.0
2017-Nov-23 22:28N 40°41' W 074°05'0 0.0
2017-Nov-23 21:58N 40°41' W 074°05'0 0.0
2017-Nov-23 21:28N 40°41' W 074°05'0 0.0
2017-Nov-23 20:58N 40°41' W 074°05'0 0.0
2017-Nov-23 20:28N 40°41' W 074°05'0 0.0
2017-Nov-23 19:58N 40°41' W 074°05'0 0.0
2017-Nov-23 19:28N 40°41' W 074°05'0 0.0
2017-Nov-23 18:58N 40°41' W 074°05'0 0.0
2017-Nov-23 18:25N 40°41' W 074°05'0 0.0
2017-Nov-23 17:58N 40°41' W 074°05'0 0.0
2017-Nov-23 17:28N 40°41' W 074°05'0 0.0
2017-Nov-23 16:58N 40°41' W 074°05'0 0.0
2017-Nov-23 16:28N 40°41' W 074°05'0 0.0
2017-Nov-23 15:58N 40°41' W 074°05'0 0.0
2017-Nov-23 15:28N 40°41' W 074°05'0 0.0
2017-Nov-23 14:58N 40°41' W 074°05'0 0.0
2017-Nov-23 14:25N 40°41' W 074°05'0 0.6
2017-Nov-23 14:00N 40°41' W 074°05'0 0.5
2017-Nov-23 13:30N 40°41' W 074°05'0 0.7
2017-Nov-23 12:58N 40°41' W 074°04'0 0.8
2017-Nov-23 12:30N 40°41' W 074°05'0 0.1
2017-Nov-23 12:00N 40°41' W 074°05'0 0.1
2017-Nov-23 11:29N 40°41' W 074°05'0 0.0
2017-Nov-23 10:59N 40°41' W 074°05'0 0.0
2017-Nov-23 10:29N 40°41' W 074°05'0 0.0
2017-Nov-23 09:59N 40°41' W 074°05'0 0.0
2017-Nov-23 09:29N 40°41' W 074°05'0 0.0
2017-Nov-23 08:59N 40°41' W 074°05'0 0.0
2017-Nov-23 08:29N 40°41' W 074°05'0 0.0
2017-Nov-23 07:56N 40°41' W 074°05'0 0.0
2017-Nov-23 07:29N 40°41' W 074°05'0 0.0
2017-Nov-23 06:59N 40°41' W 074°05'0 0.0
2017-Nov-23 06:29N 40°41' W 074°05'0 0.0
2017-Nov-23 05:59N 40°41' W 074°05'0 0.0
2017-Nov-23 05:29N 40°41' W 074°05'0 0.0
2017-Nov-23 04:59N 40°41' W 074°05'0 0.0
2017-Nov-23 04:29N 40°41' W 074°05'0 0.0
2017-Nov-23 03:59N 40°41' W 074°05'2 3.7
2017-Nov-23 03:30N 40°40' W 074°03'3 5.4
2017-Nov-23 03:00N 40°42' W 073°60'2 3.9
2017-Nov-23 02:30N 40°44' W 073°58'1 2.4
2017-Nov-23 02:00N 40°44' W 073°57'4 7.4
2017-Nov-23 01:30N 40°42' W 074°00'3 5.8
2017-Nov-23 01:00N 40°41' W 074°04'1 1.3
2017-Nov-23 00:26N 40°41' W 074°05'0 0.0
2017-Nov-22 23:59N 40°41' W 074°05'0 0.0
2017-Nov-22 23:29N 40°41' W 074°05'0 0.0
2017-Nov-22 22:59N 40°41' W 074°05'0 0.0
2017-Nov-22 22:26N 40°41' W 074°05'0 0.0
2017-Nov-22 21:59N 40°41' W 074°05'0 0.0
2017-Nov-22 21:26N 40°41' W 074°05'0 0.0
2017-Nov-22 20:56N 40°41' W 074°05'0 0.0
2017-Nov-22 20:30N 40°41' W 074°05'0 0.4
2017-Nov-22 20:00N 40°41' W 074°04'0 0.4
2017-Nov-22 19:30N 40°41' W 074°05'  
2017-Nov-20 00:26N 40°41' W 074°05'0 0.0
2017-Nov-19 23:59N 40°41' W 074°05'0 0.0
2017-Nov-19 23:29N 40°41' W 074°05'0 0.0
2017-Nov-19 22:59N 40°41' W 074°05'0 0.0
2017-Nov-19 22:29N 40°41' W 074°05'0 0.0
2017-Nov-19 21:59N 40°41' W 074°05'0 0.0
2017-Nov-19 21:29N 40°41' W 074°05'0 0.0
2017-Nov-19 20:59N 40°41' W 074°05'0 0.0
2017-Nov-19 20:29N 40°41' W 074°05'0 0.0
2017-Nov-19 19:59N 40°41' W 074°05'0 0.0
2017-Nov-19 19:29N 40°41' W 074°05'0 0.0
2017-Nov-19 18:59N 40°41' W 074°05'0 0.0
2017-Nov-19 18:29N 40°41' W 074°05'0 0.0
2017-Nov-19 17:56N 40°41' W 074°05'0 0.0
2017-Nov-19 17:29N 40°41' W 074°05'0 0.0
2017-Nov-19 16:59N 40°41' W 074°05'0 0.0
2017-Nov-19 16:29N 40°41' W 074°05'0 0.0
2017-Nov-19 15:59N 40°41' W 074°05'0 0.0
2017-Nov-19 15:29N 40°41' W 074°05'0 0.0
2017-Nov-19 14:59N 40°41' W 074°05'0 0.0
2017-Nov-19 14:29N 40°41' W 074°05'0 0.0
2017-Nov-19 13:59N 40°41' W 074°05'0 0.0
2017-Nov-19 13:26N 40°41' W 074°05'0 0.0
2017-Nov-19 12:56N 40°41' W 074°05'0 0.0
2017-Nov-19 12:29N 40°41' W 074°05'0 0.0
2017-Nov-19 11:59N 40°41' W 074°05'0 0.0
2017-Nov-19 11:29N 40°41' W 074°05'0 0.0
2017-Nov-19 10:59N 40°41' W 074°05'0 0.0
2017-Nov-19 10:29N 40°41' W 074°05'0 0.0
2017-Nov-19 09:56N 40°41' W 074°05'0 0.0
2017-Nov-19 09:23N 40°41' W 074°05'0 0.0
2017-Nov-19 08:44N 40°41' W 074°05'0 0.0
2017-Nov-19 08:29N 40°41' W 074°05'0 0.0
2017-Nov-19 07:59N 40°41' W 074°05'0 0.0
2017-Nov-19 07:29N 40°41' W 074°05'0 0.0
2017-Nov-19 06:59N 40°41' W 074°05'0 0.0
2017-Nov-19 06:29N 40°41' W 074°05'0 0.0
2017-Nov-19 05:56N 40°41' W 074°05'0 0.0
2017-Nov-19 05:29N 40°41' W 074°05'0 0.0
2017-Nov-19 04:59N 40°41' W 074°05'0 0.0
2017-Nov-19 04:29N 40°41' W 074°05'0 0.0
2017-Nov-19 03:59N 40°41' W 074°05'0 0.0
2017-Nov-19 03:29N 40°41' W 074°05'0 0.0
2017-Nov-19 02:59N 40°41' W 074°05'0 0.0
2017-Nov-19 02:29N 40°41' W 074°05'0 0.0
2017-Nov-19 01:59N 40°41' W 074°05'0 0.0
2017-Nov-19 01:29N 40°41' W 074°05'0 0.0
2017-Nov-19 00:59N 40°41' W 074°05'0 0.0
2017-Nov-19 00:29N 40°41' W 074°05'0 0.0
2017-Nov-18 23:59N 40°41' W 074°05'0 0.0
2017-Nov-18 23:29N 40°41' W 074°05'0 0.0
2017-Nov-18 22:59N 40°41' W 074°05'0 0.0
2017-Nov-18 22:29N 40°41' W 074°05'0 0.0
2017-Nov-18 21:59N 40°41' W 074°05'0 0.0
2017-Nov-18 21:29N 40°41' W 074°05'0 0.0
2017-Nov-18 20:59N 40°41' W 074°05'0 0.0
2017-Nov-18 20:29N 40°41' W 074°05'0 0.0
2017-Nov-18 19:59N 40°41' W 074°05'0 0.7
2017-Nov-18 19:30N 40°41' W 074°04'3 5.8
2017-Nov-18 18:59N 40°40' W 074°01'3 6.9
2017-Nov-18 18:30N 40°41' W 074°05'0 0.0
2017-Nov-18 18:00N 40°41' W 074°05'0 0.0
2017-Nov-18 17:30N 40°41' W 074°05'0 0.0
2017-Nov-18 17:00N 40°41' W 074°05'0 0.0
2017-Nov-18 16:30N 40°41' W 074°05'0 0.0
2017-Nov-18 16:00N 40°41' W 074°05'0 0.0
2017-Nov-18 15:30N 40°41' W 074°05'0 0.0
2017-Nov-18 15:00N 40°41' W 074°05'0 0.3
2017-Nov-18 14:28N 40°41' W 074°04'2 4.2
2017-Nov-18 14:01N 40°40' W 074°02'1 2.6
2017-Nov-18 13:28N 40°40' W 074°01'0 0.0
2017-Nov-18 13:00N 40°40' W 074°01'3 6.3
2017-Nov-18 12:28N 40°41' W 074°05'0 0.0
2017-Nov-18 11:58N 40°41' W 074°05'0 0.0
2017-Nov-18 11:28N 40°41' W 074°05'0 0.0
2017-Nov-18 10:58N 40°41' W 074°05'0 0.0
2017-Nov-18 10:28N 40°41' W 074°05'0 0.0
2017-Nov-18 09:58N 40°41' W 074°05'0 0.0
2017-Nov-18 09:25N 40°41' W 074°05'0 0.0
2017-Nov-18 08:58N 40°41' W 074°05'0 0.0
2017-Nov-18 08:28N 40°41' W 074°05'0 0.0
2017-Nov-18 07:58N 40°41' W 074°05'0 0.0
2017-Nov-18 07:28N 40°41' W 074°05'0 0.0
2017-Nov-18 06:58N 40°41' W 074°05'0 0.0
2017-Nov-18 06:28N 40°41' W 074°05'0 0.0
2017-Nov-18 05:58N 40°41' W 074°05'0 0.0
2017-Nov-18 05:28N 40°41' W 074°05'0 0.0
2017-Nov-18 04:46N 40°41' W 074°05'0 0.0
2017-Nov-18 04:28N 40°41' W 074°05'0 0.0
2017-Nov-18 03:58N 40°41' W 074°05'0 0.0
2017-Nov-18 03:28N 40°41' W 074°05'0 0.0
2017-Nov-18 02:58N 40°41' W 074°05'0 0.0
2017-Nov-18 02:28N 40°41' W 074°05'0 0.0
2017-Nov-18 01:58N 40°41' W 074°05'0 0.0
2017-Nov-18 01:28N 40°41' W 074°05'0 0.0
2017-Nov-18 00:58N 40°41' W 074°05'0 0.0
2017-Nov-18 00:28N 40°41' W 074°05'0 0.0
2017-Nov-17 23:58N 40°41' W 074°05'0 0.0
2017-Nov-17 23:28N 40°41' W 074°05'0 0.0
2017-Nov-17 22:55N 40°41' W 074°05'0 0.0
2017-Nov-17 22:28N 40°41' W 074°05'0 0.0
2017-Nov-17 21:58N 40°41' W 074°05'0 0.0
2017-Nov-17 21:28N 40°41' W 074°05'0 0.0
2017-Nov-17 20:58N 40°41' W 074°05'0 0.0
2017-Nov-17 20:28N 40°41' W 074°05'2 3.7
2017-Nov-17 20:01N 40°41' W 074°03'4 7.9
2017-Nov-17 19:31N 40°43' W 073°58'2 3.4
2017-Nov-17 19:00N 40°44' W 073°57'2 3.7
2017-Nov-17 18:30N 40°43' W 073°58'2 4.8
2017-Nov-17 18:00N 40°41' W 074°01'2 4.7
2017-Nov-17 17:30N 40°40' W 074°04'1 2.2
2017-Nov-17 17:01N 40°41' W 074°05'0 0.0
2017-Nov-17 16:27N 40°41' W 074°05'0 0.0
2017-Nov-17 16:00N 40°41' W 074°05'0 0.1
2017-Nov-17 15:29N 40°41' W 074°05'1 2.5
2017-Nov-17 15:00N 40°40' W 074°03'1 2.2
2017-Nov-17 14:30N 40°42' W 074°03'0 0.0
2017-Nov-17 14:00N 40°42' W 074°03'0 0.0
2017-Nov-17 13:30N 40°42' W 074°03'0 0.0
2017-Nov-17 13:00N 40°42' W 074°03'1 2.4
2017-Nov-17 12:30N 40°41' W 074°04'1 1.7
2017-Nov-17 12:01N 40°41' W 074°05'0 0.0
2017-Nov-17 11:29N 40°41' W 074°05'0 0.0
2017-Nov-17 10:58N 40°41' W 074°05'0 0.0
2017-Nov-17 10:28N 40°41' W 074°05'0 0.0
2017-Nov-17 09:59N 40°41' W 074°05'0 0.0
2017-Nov-17 09:25N 40°41' W 074°05'0 0.0
2017-Nov-17 08:59N 40°41' W 074°05'0 0.0
2017-Nov-17 08:29N 40°41' W 074°05'0 0.0
2017-Nov-17 07:59N 40°41' W 074°05'0 0.0
2017-Nov-17 07:28N 40°41' W 074°05'0 0.0
2017-Nov-17 06:59N 40°41' W 074°05'0 0.0
2017-Nov-17 06:29N 40°41' W 074°05'0 0.0
2017-Nov-17 05:58N 40°41' W 074°05'0 0.0
2017-Nov-17 05:28N 40°41' W 074°05'0 0.0
2017-Nov-17 04:59N 40°41' W 074°05'0 0.0
2017-Nov-17 04:28N 40°41' W 074°05'0 0.0
2017-Nov-17 03:58N 40°41' W 074°05'0 0.0
2017-Nov-17 03:29N 40°41' W 074°05'0 0.0
2017-Nov-17 02:58N 40°41' W 074°05'0 0.0
2017-Nov-17 02:28N 40°41' W 074°05'0 0.0
2017-Nov-17 01:58N 40°41' W 074°05'0 0.0
2017-Nov-17 01:28N 40°41' W 074°05'0 0.0
2017-Nov-17 00:58N 40°41' W 074°05'0 0.0
2017-Nov-17 00:28N 40°41' W 074°05'0 0.0
2017-Nov-16 23:58N 40°41' W 074°05'0 0.0
2017-Nov-16 23:28N 40°41' W 074°05'0 0.0
2017-Nov-16 22:55N 40°41' W 074°05'0 0.0
2017-Nov-16 22:28N 40°41' W 074°05'0 0.0
2017-Nov-16 21:58N 40°41' W 074°05'0 0.0
2017-Nov-16 21:28N 40°41' W 074°05'0 0.0
2017-Nov-16 20:55N 40°41' W 074°05'0 0.0
2017-Nov-16 20:25N 40°41' W 074°05'0 0.0
2017-Nov-16 19:58N 40°41' W 074°05'0 0.1
2017-Nov-16 19:30N 40°41' W 074°05'1 2.2
2017-Nov-16 19:00N 40°40' W 074°04'1 2.2
2017-Nov-16 18:28N 40°42' W 074°03'0 0.0
2017-Nov-16 17:58N 40°42' W 074°03'0 0.0
2017-Nov-16 17:28N 40°42' W 074°03'0 0.0
2017-Nov-16 16:58N 40°42' W 074°03'0 0.0
2017-Nov-16 16:28N 40°42' W 074°03'0 0.0
2017-Nov-16 15:58N 40°42' W 074°03'0 0.0
2017-Nov-16 15:28N 40°42' W 074°03'0 0.0
2017-Nov-16 14:58N 40°42' W 074°03'0 0.0
2017-Nov-16 14:28N 40°42' W 074°03'0 0.0
2017-Nov-16 13:58N 40°42' W 074°03'1 2.5
2017-Nov-16 13:30N 40°40' W 074°03'1 2.2
2017-Nov-16 12:58N 40°41' W 074°05'0 0.0
2017-Nov-16 12:29N 40°41' W 074°05'0 0.0
2017-Nov-16 11:58N 40°41' W 074°05'0 0.0
2017-Nov-16 11:28N 40°41' W 074°05'0 0.0
2017-Nov-16 10:58N 40°41' W 074°05'0 0.0
2017-Nov-16 10:29N 40°41' W 074°05'0 0.0
2017-Nov-16 09:59N 40°41' W 074°05'0 0.0
2017-Nov-16 09:26N 40°41' W 074°05'0 0.0
2017-Nov-16 08:56N 40°41' W 074°05'0 0.0
2017-Nov-16 08:28N 40°41' W 074°05'0 0.0
2017-Nov-16 07:58N 40°41' W 074°05'0 0.0
2017-Nov-16 07:29N 40°41' W 074°05'0 0.0
2017-Nov-16 06:58N 40°41' W 074°05'0 0.0
2017-Nov-16 06:28N 40°41' W 074°05'0 0.0
2017-Nov-16 05:55N 40°41' W 074°05'0 0.0
2017-Nov-16 05:29N 40°41' W 074°05'0 0.0
2017-Nov-16 04:58N 40°41' W 074°05'0 0.0
2017-Nov-16 04:28N 40°41' W 074°05'0 0.0
2017-Nov-16 03:58N 40°41' W 074°05'0 0.0
2017-Nov-16 03:28N 40°41' W 074°05'0 0.0
2017-Nov-16 02:58N 40°41' W 074°05'0 0.5
2017-Nov-16 02:31N 40°41' W 074°04'3 5.9
2017-Nov-16 02:01N 40°42' W 074°01'4 7.7
2017-Nov-16 01:30N 40°45' W 073°58'4 7.5
2017-Nov-16 00:58N 40°48' W 073°54'2 1.4
2017-Nov-15 23:46N 40°49' W 073°52'1 3.9
2017-Nov-15 23:30N 40°48' W 073°53'4 9.0
2017-Nov-15 23:00N 40°45' W 073°58'4 8.4
2017-Nov-15 22:31N 40°42' W 074°00'3 6.0
2017-Nov-15 22:00N 40°41' W 074°04'0 0.6
2017-Nov-15 21:29N 40°41' W 074°05'0 0.0
2017-Nov-15 20:59N 40°41' W 074°05'0 0.0
2017-Nov-15 20:29N 40°41' W 074°05'0 0.0
2017-Nov-15 19:59N 40°41' W 074°05'0 0.0
2017-Nov-15 19:29N 40°41' W 074°05'0 0.0
2017-Nov-15 18:56N 40°41' W 074°05'0 0.0
2017-Nov-15 18:29N 40°41' W 074°05'0 0.0
2017-Nov-15 17:59N 40°41' W 074°05'0 0.0
2017-Nov-15 17:26N 40°41' W 074°05'0 0.0
2017-Nov-15 16:59N 40°41' W 074°05'0 0.0
2017-Nov-15 16:29N 40°41' W 074°05'0 0.0
2017-Nov-15 15:59N 40°41' W 074°05'0 0.0
2017-Nov-15 15:29N 40°41' W 074°05'0 0.0
2017-Nov-15 14:59N 40°41' W 074°05'0 0.0
2017-Nov-15 14:29N 40°41' W 074°05'0 0.0
2017-Nov-15 14:00N 40°41' W 074°05'0 0.1
2017-Nov-15 13:27N 40°41' W 074°05'0 0.0
2017-Nov-15 12:42N 40°41' W 074°05'0 0.0
2017-Nov-15 12:27N 40°41' W 074°05'0 0.0
2017-Nov-15 12:00N 40°41' W 074°05'0 0.0
2017-Nov-15 11:30N 40°41' W 074°05'0 0.0
2017-Nov-15 10:57N 40°41' W 074°05'0 0.0
2017-Nov-15 10:30N 40°41' W 074°05'0 0.0
2017-Nov-15 10:00N 40°41' W 074°05'0 0.0
2017-Nov-15 09:30N 40°41' W 074°05'0 0.0
2017-Nov-15 09:00N 40°41' W 074°05'0 0.0
2017-Nov-15 08:30N 40°41' W 074°05'0 0.0
2017-Nov-15 08:00N 40°41' W 074°05'0 0.0
2017-Nov-15 07:30N 40°41' W 074°05'0 0.0
2017-Nov-15 07:00N 40°41' W 074°05'0 0.0
2017-Nov-15 06:30N 40°41' W 074°05'0 0.0
2017-Nov-15 06:00N 40°41' W 074°05'0 0.0
2017-Nov-15 05:30N 40°41' W 074°05'0 0.0
2017-Nov-15 05:00N 40°41' W 074°05'0 0.0
2017-Nov-15 04:27N 40°41' W 074°05'0 0.0
2017-Nov-15 04:00N 40°41' W 074°05'0 0.0
2017-Nov-15 03:30N 40°41' W 074°05'0 0.4
2017-Nov-15 03:00N 40°41' W 074°04'3 5.4
2017-Nov-15 02:30N 40°40' W 074°01'0 0.3
2017-Nov-15 02:00N 40°40' W 074°01'4 7.9
2017-Nov-15 01:30N 40°43' W 073°58'5 8.7
2017-Nov-15 00:59N 40°47' W 073°55'3 5.5
2017-Nov-15 00:30N 40°48' W 073°52'0 0.2
2017-Nov-14 22:42N 40°49' W 073°52'1 4.5
2017-Nov-14 22:29N 40°48' W 073°52'4 8.3
2017-Nov-14 22:00N 40°46' W 073°57'4 8.5
2017-Nov-14 21:30N 40°42' W 073°60'3 6.9
2017-Nov-14 21:01N 40°40' W 074°04'1 1.8
2017-Nov-14 20:25N 40°41' W 074°05'0 0.0
2017-Nov-14 19:49N 40°41' W 074°05'0 0.0
2017-Nov-14 19:19N 40°41' W 074°05'0 0.0
2017-Nov-14 18:58N 40°41' W 074°05'0 0.0
2017-Nov-14 18:25N 40°41' W 074°05'0 0.0
2017-Nov-14 17:58N 40°41' W 074°05'0 0.0
2017-Nov-14 17:25N 40°41' W 074°05'0 0.0
2017-Nov-14 16:58N 40°41' W 074°05'0 0.0
2017-Nov-14 16:19N 40°41' W 074°05'0 0.2
2017-Nov-14 15:59N 40°41' W 074°05'1 1.6
2017-Nov-14 15:30N 40°41' W 074°04'1 2.3
2017-Nov-14 14:59N 40°42' W 074°03'0 0.0
2017-Nov-14 14:29N 40°42' W 074°03'0 0.0
2017-Nov-14 13:59N 40°42' W 074°03'0 0.0
2017-Nov-14 13:29N 40°42' W 074°03'0 0.0
2017-Nov-14 12:59N 40°42' W 074°03'1 2.6
2017-Nov-14 12:30N 40°41' W 074°04'1 1.6
2017-Nov-14 11:58N 40°41' W 074°05'0 0.0
2017-Nov-14 11:28N 40°41' W 074°05'0 0.0
2017-Nov-14 10:58N 40°41' W 074°05'0 0.0
2017-Nov-14 10:28N 40°41' W 074°05'0 0.0
2017-Nov-14 09:58N 40°41' W 074°05'0 0.0
2017-Nov-14 09:28N 40°41' W 074°05'0 0.0
2017-Nov-14 08:58N 40°41' W 074°05'0 0.0
2017-Nov-14 08:28N 40°41' W 074°05'0 0.0
2017-Nov-14 07:58N 40°41' W 074°05'0 0.0
2017-Nov-14 07:28N 40°41' W 074°05'0 0.0
2017-Nov-14 06:52N 40°41' W 074°05'0 0.0
2017-Nov-14 06:28N 40°41' W 074°05'0 0.0
2017-Nov-14 05:58N 40°41' W 074°05'0 0.0
2017-Nov-14 05:28N 40°41' W 074°05'  

Dump ship's entire track history